Swett, South Dakota
Current Conditions -  °F | °C
As of 12:52 AM on Saturday 25 Oct 2014 (Local Time) from KIEN Reporting Station
Clear Clear  
Wind Chill: 30°   Ceiling: Unl
Heat Index: 34°   Visibility: 10mi
Dew Point: 32°   Wind: 5mph
Humidity: 92%   Direction: 90°E
Pressure: 30.13"   Gusts: NA
Location:  43.2013°N, 101.679°W
Report Text: KIEN 250652Z AUTO 09004KT 10SM CLR 01/00 A3013 RMK AO2 SLP196 T00110000 402500006
Loading
Personal Weather Stations






























Interactive Weather Map
Tropical Storm Tracking
New forecast layout! Learn more

10-Day Weather Forecast

Advertisements
Track Severe Weather on mobile